sensor_id;sensor_type;location;lat;lon;timestamp;pressure;altitude;pressure_sealevel;temperature;humidity
84797;BME280;75028;51.374;21.078;2023-12-20T00:00:15;98775.06;;;6.16;88.07
84797;BME280;75028;51.374;21.078;2023-12-20T00:03:01;98770.78;;;6.15;88.62
84797;BME280;75028;51.374;21.078;2023-12-20T00:05:28;98764.84;;;6.13;88.66
84797;BME280;75028;51.374;21.078;2023-12-20T00:07:54;98765.91;;;6.10;88.97
84797;BME280;75028;51.374;21.078;2023-12-20T00:10:20;98762.59;;;6.08;89.20
84797;BME280;75028;51.374;21.078;2023-12-20T00:12:46;98767.00;;;6.08;89.67
84797;BME280;75028;51.374;21.078;2023-12-20T00:15:12;98755.09;;;6.04;90.48
84797;BME280;75028;51.374;21.078;2023-12-20T00:17:38;98752.88;;;5.99;90.42
84797;BME280;75028;51.374;21.078;2023-12-20T00:20:05;98750.00;;;6.02;90.60
84797;BME280;75028;51.374;21.078;2023-12-20T00:22:31;98754.97;;;6.05;90.48
84797;BME280;75028;51.374;21.078;2023-12-20T00:24:58;98751.66;;;6.03;90.98
84797;BME280;75028;51.374;21.078;2023-12-20T00:27:24;98746.78;;;5.99;90.77
84797;BME280;75028;51.374;21.078;2023-12-20T00:29:50;98750.63;;;5.95;91.21
84797;BME280;75028;51.374;21.078;2023-12-20T00:32:16;98743.72;;;5.94;91.55
84797;BME280;75028;51.374;21.078;2023-12-20T00:34:43;98741.66;;;5.97;91.01
84797;BME280;75028;51.374;21.078;2023-12-20T00:37:09;98733.22;;;5.94;92.12
84797;BME280;75028;51.374;21.078;2023-12-20T00:39:35;98731.44;;;5.94;91.60
84797;BME280;75028;51.374;21.078;2023-12-20T00:42:01;98726.34;;;5.93;92.10
84797;BME280;75028;51.374;21.078;2023-12-20T00:44:27;98723.00;;;5.91;91.95
84797;BME280;75028;51.374;21.078;2023-12-20T00:46:53;98725.75;;;5.89;92.60
84797;BME280;75028;51.374;21.078;2023-12-20T00:49:19;98719.66;;;5.89;92.15
84797;BME280;75028;51.374;21.078;2023-12-20T00:51:45;98720.63;;;5.88;92.09
84797;BME280;75028;51.374;21.078;2023-12-20T00:54:12;98699.56;;;5.78;91.76
84797;BME280;75028;51.374;21.078;2023-12-20T00:56:39;98717.75;;;5.91;92.06
84797;BME280;75028;51.374;21.078;2023-12-20T00:59:05;98721.59;;;5.87;91.71
84797;BME280;75028;51.374;21.078;2023-12-20T01:01:31;98705.97;;;5.85;92.02
84797;BME280;75028;51.374;21.078;2023-12-20T01:03:59;98713.00;;;5.85;92.67
84797;BME280;75028;51.374;21.078;2023-12-20T01:06:25;98712.31;;;5.83;93.39
84797;BME280;75028;51.374;21.078;2023-12-20T01:08:51;98717.69;;;5.81;93.25
84797;BME280;75028;51.374;21.078;2023-12-20T01:11:17;98710.50;;;5.83;93.01
84797;BME280;75028;51.374;21.078;2023-12-20T01:13:43;98703.63;;;5.82;93.15
84797;BME280;75028;51.374;21.078;2023-12-20T01:16:10;98708.13;;;5.80;93.47
84797;BME280;75028;51.374;21.078;2023-12-20T01:18:37;98713.25;;;5.82;93.05
84797;BME280;75028;51.374;21.078;2023-12-20T01:21:04;98711.22;;;5.85;93.14
84797;BME280;75028;51.374;21.078;2023-12-20T01:23:32;98712.31;;;5.83;93.85
84797;BME280;75028;51.374;21.078;2023-12-20T01:25:58;98689.88;;;5.79;94.11
84797;BME280;75028;51.374;21.078;2023-12-20T01:28:26;98689.53;;;5.83;93.94
84797;BME280;75028;51.374;21.078;2023-12-20T01:30:51;98686.09;;;5.83;93.91
84797;BME280;75028;51.374;21.078;2023-12-20T01:33:18;98683.59;;;5.81;94.36
84797;BME280;75028;51.374;21.078;2023-12-20T01:35:44;98667.94;;;5.80;94.29
84797;BME280;75028;51.374;21.078;2023-12-20T01:38:10;98674.38;;;5.87;93.95
84797;BME280;75028;51.374;21.078;2023-12-20T01:40:36;98676.16;;;5.86;94.39
84797;BME280;75028;51.374;21.078;2023-12-20T01:43:08;98661.38;;;5.85;94.49
84797;BME280;75028;51.374;21.078;2023-12-20T01:45:35;98659.59;;;5.86;94.44
84797;BME280;75028;51.374;21.078;2023-12-20T01:48:02;98660.53;;;5.85;94.74
84797;BME280;75028;51.374;21.078;2023-12-20T01:50:31;98657.38;;;5.81;94.97
84797;BME280;75028;51.374;21.078;2023-12-20T01:53:01;98658.03;;;5.83;94.97
84797;BME280;75028;51.374;21.078;2023-12-20T01:55:30;98646.13;;;5.79;94.95
84797;BME280;75028;51.374;21.078;2023-12-20T01:57:58;98644.78;;;5.85;95.25
84797;BME280;75028;51.374;21.078;2023-12-20T02:00:26;98646.31;;;5.87;94.84
84797;BME280;75028;51.374;21.078;2023-12-20T02:02:53;98637.91;;;5.84;94.89
84797;BME280;75028;51.374;21.078;2023-12-20T02:05:21;98630.44;;;5.89;95.48
84797;BME280;75028;51.374;21.078;2023-12-20T02:07:48;98630.44;;;5.89;95.67
84797;BME280;75028;51.374;21.078;2023-12-20T02:10:15;98626.31;;;5.86;95.48
84797;BME280;75028;51.374;21.078;2023-12-20T02:12:41;98613.44;;;5.83;95.58
84797;BME280;75028;51.374;21.078;2023-12-20T02:15:07;98617.31;;;5.89;95.58
84797;BME280;75028;51.374;21.078;2023-12-20T02:17:34;98618.16;;;5.89;95.57
84797;BME280;75028;51.374;21.078;2023-12-20T02:20:00;98620.53;;;5.92;95.44
84797;BME280;75028;51.374;21.078;2023-12-20T02:22:26;98603.66;;;5.85;95.63
84797;BME280;75028;51.374;21.078;2023-12-20T02:24:52;98608.50;;;5.90;95.79
84797;BME280;75028;51.374;21.078;2023-12-20T02:27:19;98600.63;;;5.90;95.29
84797;BME280;75028;51.374;21.078;2023-12-20T02:29:47;98594.69;;;5.88;95.52
84797;BME280;75028;51.374;21.078;2023-12-20T02:32:14;98598.44;;;5.95;95.42
84797;BME280;75028;51.374;21.078;2023-12-20T02:34:40;98606.88;;;5.98;95.56
84797;BME280;75028;51.374;21.078;2023-12-20T02:37:06;98601.06;;;5.95;95.58
84797;BME280;75028;51.374;21.078;2023-12-20T02:39:32;98605.63;;;5.93;95.72
84797;BME280;75028;51.374;21.078;2023-12-20T02:41:59;98606.56;;;5.92;95.73
84797;BME280;75028;51.374;21.078;2023-12-20T02:44:26;98596.91;;;5.92;95.78
84797;BME280;75028;51.374;21.078;2023-12-20T02:46:53;98584.34;;;5.96;95.45
84797;BME280;75028;51.374;21.078;2023-12-20T02:49:19;98591.78;;;5.91;95.66
84797;BME280;75028;51.374;21.078;2023-12-20T02:51:45;98598.44;;;5.95;95.91
84797;BME280;75028;51.374;21.078;2023-12-20T02:54:11;98593.06;;;5.96;95.67
84797;BME280;75028;51.374;21.078;2023-12-20T02:56:38;98586.84;;;5.97;95.43
84797;BME280;75028;51.374;21.078;2023-12-20T02:59:04;98587.66;;;5.98;95.89
84797;BME280;75028;51.374;21.078;2023-12-20T03:01:34;98576.47;;;5.96;96.14
84797;BME280;75028;51.374;21.078;2023-12-20T03:04:01;98574.94;;;5.93;95.64
84797;BME280;75028;51.374;21.078;2023-12-20T03:06:27;98579.09;;;5.96;95.80
84797;BME280;75028;51.374;21.078;2023-12-20T03:08:53;98579.38;;;5.93;96.46
84797;BME280;75028;51.374;21.078;2023-12-20T03:11:19;98579.09;;;5.96;96.13
84797;BME280;75028;51.374;21.078;2023-12-20T03:13:45;98578.00;;;5.98;95.97
84797;BME280;75028;51.374;21.078;2023-12-20T03:16:12;98587.41;;;6.01;95.95
84797;BME280;75028;51.374;21.078;2023-12-20T03:18:39;98591.81;;;6.00;95.89
84797;BME280;75028;51.374;21.078;2023-12-20T03:21:06;98594.56;;;5.99;96.03
84797;BME280;75028;51.374;21.078;2023-12-20T03:23:32;98596.38;;;5.98;96.08
84797;BME280;75028;51.374;21.078;2023-12-20T03:25:59;98597.31;;;5.97;96.27
84797;BME280;75028;51.374;21.078;2023-12-20T03:28:27;98580.91;;;5.95;96.09
84797;BME280;75028;51.374;21.078;2023-12-20T03:30:53;98584.22;;;5.97;96.05
84797;BME280;75028;51.374;21.078;2023-12-20T03:33:19;98593.50;;;6.01;95.97
84797;BME280;75028;51.374;21.078;2023-12-20T03:35:45;98599.69;;;6.00;96.00
84797;BME280;75028;51.374;21.078;2023-12-20T03:38:11;98595.00;;;5.94;96.38
84797;BME280;75028;51.374;21.078;2023-12-20T03:40:37;98599.28;;;5.95;96.44
84797;BME280;75028;51.374;21.078;2023-12-20T03:43:03;98605.06;;;5.99;96.47
84797;BME280;75028;51.374;21.078;2023-12-20T03:45:30;98601.50;;;6.00;96.23
84797;BME280;75028;51.374;21.078;2023-12-20T03:47:55;98587.53;;;5.99;96.19
84797;BME280;75028;51.374;21.078;2023-12-20T03:50:23;98590.16;;;5.99;96.45
84797;BME280;75028;51.374;21.078;2023-12-20T03:52:48;98584.06;;;5.99;96.67
84797;BME280;75028;51.374;21.078;2023-12-20T03:55:15;98587.53;;;5.99;96.68
84797;BME280;75028;51.374;21.078;2023-12-20T03:57:41;98591.69;;;6.02;96.39
84797;BME280;75028;51.374;21.078;2023-12-20T04:00:07;98581.06;;;6.03;96.59
84797;BME280;75028;51.374;21.078;2023-12-20T04:02:40;98588.78;;;6.05;96.28
84797;BME280;75028;51.374;21.078;2023-12-20T04:05:07;98589.91;;;6.02;96.66
84797;BME280;75028;51.374;21.078;2023-12-20T04:07:34;98593.22;;;6.04;96.64
84797;BME280;75028;51.374;21.078;2023-12-20T04:10:00;98592.38;;;6.04;96.46
84797;BME280;75028;51.374;21.078;2023-12-20T04:12:28;98592.53;;;6.02;96.32
84797;BME280;75028;51.374;21.078;2023-12-20T04:14:54;98588.25;;;6.01;96.46
84797;BME280;75028;51.374;21.078;2023-12-20T04:17:20;98584.78;;;6.01;96.47
84797;BME280;75028;51.374;21.078;2023-12-20T04:19:49;98586.69;;;5.99;96.76
84797;BME280;75028;51.374;21.078;2023-12-20T04:22:16;98590.03;;;6.01;96.67
84797;BME280;75028;51.374;21.078;2023-12-20T04:24:43;98592.66;;;6.01;96.86
84797;BME280;75028;51.374;21.078;2023-12-20T04:27:08;98588.78;;;5.95;97.06
84797;BME280;75028;51.374;21.078;2023-12-20T04:29:35;98592.91;;;5.98;96.77
84797;BME280;75028;51.374;21.078;2023-12-20T04:32:01;98581.72;;;5.96;97.00
84797;BME280;75028;51.374;21.078;2023-12-20T04:34:27;98560.03;;;5.84;96.92
84797;BME280;75028;51.374;21.078;2023-12-20T04:36:53;98576.63;;;5.94;96.92
84797;BME280;75028;51.374;21.078;2023-12-20T04:39:19;98582.56;;;5.96;97.05
84797;BME280;75028;51.374;21.078;2023-12-20T04:41:45;98573.56;;;5.99;96.83
84797;BME280;75028;51.374;21.078;2023-12-20T04:44:13;98581.88;;;5.94;96.73
84797;BME280;75028;51.374;21.078;2023-12-20T04:46:39;98570.53;;;5.94;96.89
84797;BME280;75028;51.374;21.078;2023-12-20T04:49:05;98575.66;;;5.95;96.87
84797;BME280;75028;51.374;21.078;2023-12-20T04:51:34;98577.56;;;5.93;96.90
84797;BME280;75028;51.374;21.078;2023-12-20T04:54:01;98583.34;;;5.87;97.05
84797;BME280;75028;51.374;21.078;2023-12-20T04:56:28;98583.34;;;5.87;97.03
84797;BME280;75028;51.374;21.078;2023-12-20T04:58:54;98574.53;;;5.88;97.13
84797;BME280;75028;51.374;21.078;2023-12-20T05:01:20;98574.94;;;5.93;96.95
84797;BME280;75028;51.374;21.078;2023-12-20T05:03:48;98574.13;;;5.93;97.01
84797;BME280;75028;51.374;21.078;2023-12-20T05:06:14;98580.47;;;5.90;97.36
84797;BME280;75028;51.374;21.078;2023-12-20T05:08:40;98577.16;;;5.88;97.31
84797;BME280;75028;51.374;21.078;2023-12-20T05:11:06;98577.16;;;5.88;97.25
84797;BME280;75028;51.374;21.078;2023-12-20T05:13:32;98578.94;;;5.88;97.16
84797;BME280;75028;51.374;21.078;2023-12-20T05:15:58;98569.16;;;5.90;97.19
84797;BME280;75028;51.374;21.078;2023-12-20T05:18:24;98578.81;;;5.89;96.70
84797;BME280;75028;51.374;21.078;2023-12-20T05:20:51;98574.13;;;5.93;96.71
84797;BME280;75028;51.374;21.078;2023-12-20T05:23:17;98567.06;;;5.93;96.75
84797;BME280;75028;51.374;21.078;2023-12-20T05:25:43;98566.66;;;5.88;97.08
84797;BME280;75028;51.374;21.078;2023-12-20T05:28:09;98567.47;;;5.89;97.01
84797;BME280;75028;51.374;21.078;2023-12-20T05:30:35;98565.97;;;5.86;96.77
84797;BME280;75028;51.374;21.078;2023-12-20T05:33:01;98571.34;;;5.85;96.63
84797;BME280;75028;51.374;21.078;2023-12-20T05:35:27;98572.44;;;5.82;96.58
84797;BME280;75028;51.374;21.078;2023-12-20T05:37:53;98574.22;;;5.82;96.73
84797;BME280;75028;51.374;21.078;2023-12-20T05:40:19;98568.25;;;5.80;96.75
84797;BME280;75028;51.374;21.078;2023-12-20T05:42:45;98569.81;;;5.82;96.78
84797;BME280;75028;51.374;21.078;2023-12-20T05:45:11;98568.16;;;5.81;96.95
84797;BME280;75028;51.374;21.078;2023-12-20T05:47:37;98571.03;;;5.78;97.50
84797;BME280;75028;51.374;21.078;2023-12-20T05:50:04;98569.69;;;5.84;97.09
84797;BME280;75028;51.374;21.078;2023-12-20T05:52:30;98569.06;;;5.80;97.30
84797;BME280;75028;51.374;21.078;2023-12-20T05:54:56;98564.44;;;5.84;97.33
84797;BME280;75028;51.374;21.078;2023-12-20T05:57:23;98556.69;;;5.82;97.15
84797;BME280;75028;51.374;21.078;2023-12-20T05:59:49;98557.66;;;5.81;97.29
84797;BME280;75028;51.374;21.078;2023-12-20T06:02:15;98559.81;;;5.76;97.08
84797;BME280;75028;51.374;21.078;2023-12-20T06:04:42;98557.53;;;5.83;96.85
84797;BME280;75028;51.374;21.078;2023-12-20T06:07:11;98554.16;;;5.81;96.97
84797;BME280;75028;51.374;21.078;2023-12-20T06:09:38;98550.03;;;5.78;96.79
84797;BME280;75028;51.374;21.078;2023-12-20T06:12:04;98549.91;;;5.80;96.78
84797;BME280;75028;51.374;21.078;2023-12-20T06:14:30;98557.19;;;5.76;97.05
84797;BME280;75028;51.374;21.078;2023-12-20T06:16:59;98552.47;;;5.70;97.11
84797;BME280;75028;51.374;21.078;2023-12-20T06:19:27;98563.41;;;5.75;97.10
84797;BME280;75028;51.374;21.078;2023-12-20T06:21:53;98551.53;;;5.71;97.29
84797;BME280;75028;51.374;21.078;2023-12-20T06:24:19;98559.81;;;5.76;97.32
84797;BME280;75028;51.374;21.078;2023-12-20T06:26:45;98563.97;;;5.79;97.21
84797;BME280;75028;51.374;21.078;2023-12-20T06:29:12;98570.88;;;5.80;97.45
84797;BME280;75028;51.374;21.078;2023-12-20T06:31:37;98569.81;;;5.82;97.29
84797;BME280;75028;51.374;21.078;2023-12-20T06:34:04;98565.53;;;5.81;97.19
84797;BME280;75028;51.374;21.078;2023-12-20T06:36:30;98556.69;;;5.82;97.39
84797;BME280;75028;51.374;21.078;2023-12-20T06:38:56;98552.53;;;5.80;97.63
84797;BME280;75028;51.374;21.078;2023-12-20T06:41:22;98553.63;;;5.77;97.52
84797;BME280;75028;51.374;21.078;2023-12-20T06:43:50;98548.91;;;5.71;97.70
84797;BME280;75028;51.374;21.078;2023-12-20T06:46:17;98559.25;;;5.73;97.66
84797;BME280;75028;51.374;21.078;2023-12-20T06:48:43;98557.72;;;5.70;97.85
84797;BME280;75028;51.374;21.078;2023-12-20T06:51:16;98561.19;;;5.71;97.71
84797;BME280;75028;51.374;21.078;2023-12-20T06:53:43;98555.22;;;5.69;97.60
84797;BME280;75028;51.374;21.078;2023-12-20T06:56:10;98563.25;;;5.67;97.77
84797;BME280;75028;51.374;21.078;2023-12-20T06:58:37;98555.94;;;5.71;97.69
84797;BME280;75028;51.374;21.078;2023-12-20T07:01:04;98558.16;;;5.66;97.67
84797;BME280;75028;51.374;21.078;2023-12-20T07:03:31;98549.03;;;5.70;97.76
84797;BME280;75028;51.374;21.078;2023-12-20T07:05:56;98553.72;;;5.66;97.75
84797;BME280;75028;51.374;21.078;2023-12-20T07:08:23;98550.94;;;5.68;97.64
84797;BME280;75028;51.374;21.078;2023-12-20T07:10:49;98551.22;;;5.65;97.91
84797;BME280;75028;51.374;21.078;2023-12-20T07:13:15;98553.97;;;5.63;97.55
84797;BME280;75028;51.374;21.078;2023-12-20T07:15:41;98547.53;;;5.67;97.80
84797;BME280;75028;51.374;21.078;2023-12-20T07:18:07;98551.22;;;5.65;97.66
84797;BME280;75028;51.374;21.078;2023-12-20T07:20:33;98549.97;;;5.69;97.97
84797;BME280;75028;51.374;21.078;2023-12-20T07:22:59;98545.84;;;5.66;97.83
84797;BME280;75028;51.374;21.078;2023-12-20T07:25:25;98544.06;;;5.67;97.98
84797;BME280;75028;51.374;21.078;2023-12-20T07:27:51;98550.28;;;5.66;98.00
84797;BME280;75028;51.374;21.078;2023-12-20T07:30:19;98547.53;;;5.67;97.89
84797;BME280;75028;51.374;21.078;2023-12-20T07:32:45;98551.66;;;5.70;97.71
84797;BME280;75028;51.374;21.078;2023-12-20T07:35:11;98552.22;;;5.73;97.72
84797;BME280;75028;51.374;21.078;2023-12-20T07:37:37;98551.41;;;5.73;97.49
84797;BME280;75028;51.374;21.078;2023-12-20T07:40:03;98553.19;;;5.72;97.22
84797;BME280;75028;51.374;21.078;2023-12-20T07:42:29;98548.50;;;5.76;97.42
84797;BME280;75028;51.374;21.078;2023-12-20T07:44:55;98560.22;;;5.72;97.35
84797;BME280;75028;51.374;21.078;2023-12-20T07:47:21;98566.03;;;5.75;97.27
84797;BME280;75028;51.374;21.078;2023-12-20T07:49:48;98560.34;;;5.70;97.39
84797;BME280;75028;51.374;21.078;2023-12-20T07:52:15;98576.25;;;5.78;97.20
84797;BME280;75028;51.374;21.078;2023-12-20T07:54:41;98566.03;;;5.75;97.40
84797;BME280;75028;51.374;21.078;2023-12-20T07:57:07;98563.00;;;5.80;96.96
84797;BME280;75028;51.374;21.078;2023-12-20T07:59:33;98563.81;;;5.80;97.02
84797;BME280;75028;51.374;21.078;2023-12-20T08:01:59;98551.94;;;5.76;96.51
84797;BME280;75028;51.374;21.078;2023-12-20T08:04:26;98560.66;;;5.77;96.82
84797;BME280;75028;51.374;21.078;2023-12-20T08:06:53;98559.13;;;5.74;96.47
84797;BME280;75028;51.374;21.078;2023-12-20T08:09:19;98558.28;;;5.74;96.68
84797;BME280;75028;51.374;21.078;2023-12-20T08:11:46;98562.16;;;5.70;96.33
84797;BME280;75028;51.374;21.078;2023-12-20T08:14:12;98570.03;;;5.70;96.58
84797;BME280;75028;51.374;21.078;2023-12-20T08:16:38;98568.22;;;5.70;96.62
84797;BME280;75028;51.374;21.078;2023-12-20T08:19:05;98568.50;;;5.67;96.38
84797;BME280;75028;51.374;21.078;2023-12-20T08:21:31;98567.22;;;5.62;96.64
84797;BME280;75028;51.374;21.078;2023-12-20T08:23:57;98570.13;;;5.59;96.56
84797;BME280;75028;51.374;21.078;2023-12-20T08:26:23;98569.69;;;5.54;96.65
84797;BME280;75028;51.374;21.078;2023-12-20T08:28:50;98576.81;;;5.52;96.62
84797;BME280;75028;51.374;21.078;2023-12-20T08:31:17;98566.22;;;5.53;96.39
84797;BME280;75028;51.374;21.078;2023-12-20T08:33:47;98563.84;;;5.50;97.35
84797;BME280;75028;51.374;21.078;2023-12-20T08:36:14;98554.34;;;5.49;96.71
84797;BME280;75028;51.374;21.078;2023-12-20T08:38:40;98564.56;;;5.52;96.61
84797;BME280;75028;51.374;21.078;2023-12-20T08:41:06;98567.56;;;5.48;95.85
84797;BME280;75028;51.374;21.078;2023-12-20T08:43:34;98567.84;;;5.45;96.15
84797;BME280;75028;51.374;21.078;2023-12-20T08:46:00;98572.81;;;5.48;96.46
84797;BME280;75028;51.374;21.078;2023-12-20T08:48:26;98567.69;;;5.46;96.62
84797;BME280;75028;51.374;21.078;2023-12-20T08:50:53;98568.41;;;5.48;96.82
84797;BME280;75028;51.374;21.078;2023-12-20T08:53:19;98565.34;;;5.43;96.88
84797;BME280;75028;51.374;21.078;2023-12-20T08:55:46;98567.03;;;5.44;96.87
84797;BME280;75028;51.374;21.078;2023-12-20T08:58:12;98559.41;;;5.41;96.97
84797;BME280;75028;51.374;21.078;2023-12-20T09:00:38;98568.66;;;5.45;97.10
84797;BME280;75028;51.374;21.078;2023-12-20T09:03:04;98560.56;;;5.48;97.07
84797;BME280;75028;51.374;21.078;2023-12-20T09:05:31;98543.94;;;5.38;97.03
84797;BME280;75028;51.374;21.078;2023-12-20T09:07:57;98550.19;;;5.47;96.48
84797;BME280;75028;51.374;21.078;2023-12-20T09:10:23;98552.81;;;5.47;97.07
84797;BME280;75028;51.374;21.078;2023-12-20T09:12:52;98538.59;;;5.49;96.71
84797;BME280;75028;51.374;21.078;2023-12-20T09:15:26;98547.44;;;5.48;96.41
84797;BME280;75028;51.374;21.078;2023-12-20T09:17:52;98539.41;;;5.40;96.62
84797;BME280;75028;51.374;21.078;2023-12-20T09:20:19;98545.47;;;5.41;96.57
84797;BME280;75028;51.374;21.078;2023-12-20T09:22:45;98541.16;;;5.30;96.53
84797;BME280;75028;51.374;21.078;2023-12-20T09:25:12;98548.34;;;5.38;97.29
84797;BME280;75028;51.374;21.078;2023-12-20T09:27:38;98536.78;;;5.40;97.32
84797;BME280;75028;51.374;21.078;2023-12-20T09:30:05;98538.25;;;5.33;96.76
84797;BME280;75028;51.374;21.078;2023-12-20T09:32:31;98531.34;;;5.32;96.90
84797;BME280;75028;51.374;21.078;2023-12-20T09:34:57;98524.59;;;5.29;96.94
84797;BME280;75028;51.374;21.078;2023-12-20T09:37:27;98541.59;;;5.35;96.80
84797;BME280;75028;51.374;21.078;2023-12-20T09:39:54;98533.13;;;5.31;97.06
84797;BME280;75028;51.374;21.078;2023-12-20T09:45:08;98521.97;;;5.29;96.93
84797;BME280;75028;51.374;21.078;2023-12-20T09:47:35;98522.81;;;5.30;97.37
84797;BME280;75028;51.374;21.078;2023-12-20T09:50:02;98515.88;;;5.29;97.00
84797;BME280;75028;51.374;21.078;2023-12-20T09:52:29;98509.00;;;5.28;97.43
84797;BME280;75028;51.374;21.078;2023-12-20T09:54:56;98512.31;;;5.30;97.39
84797;BME280;75028;51.374;21.078;2023-12-20T09:57:22;98516.16;;;5.26;97.18
84797;BME280;75028;51.374;21.078;2023-12-20T09:59:49;98517.00;;;5.26;97.71
84797;BME280;75028;51.374;21.078;2023-12-20T10:02:18;98507.09;;;5.30;97.47
84797;BME280;75028;51.374;21.078;2023-12-20T10:04:47;98508.72;;;5.31;97.18
84797;BME280;75028;51.374;21.078;2023-12-20T10:07:14;98505.00;;;5.33;97.47
84797;BME280;75028;51.374;21.078;2023-12-20T10:09:40;98495.38;;;5.34;97.29
84797;BME280;75028;51.374;21.078;2023-12-20T10:12:07;98496.75;;;5.38;97.53
84797;BME280;75028;51.374;21.078;2023-12-20T10:14:34;98490.13;;;5.34;96.90
84797;BME280;75028;51.374;21.078;2023-12-20T10:17:04;98494.13;;;5.38;97.22
84797;BME280;75028;51.374;21.078;2023-12-20T10:19:31;98488.88;;;5.28;96.90
84797;BME280;75028;51.374;21.078;2023-12-20T10:22:00;98494.66;;;5.32;96.81
84797;BME280;75028;51.374;21.078;2023-12-20T10:24:28;98493.00;;;5.31;97.33
84797;BME280;75028;51.374;21.078;2023-12-20T10:27:04;98491.63;;;5.27;96.75
84797;BME280;75028;51.374;21.078;2023-12-20T10:29:35;98500.41;;;5.26;97.22
84797;BME280;75028;51.374;21.078;2023-12-20T10:32:21;98490.91;;;5.25;97.31
84797;BME280;75028;51.374;21.078;2023-12-20T10:34:47;98491.88;;;5.24;96.43
84797;BME280;75028;51.374;21.078;2023-12-20T10:37:13;98490.91;;;5.25;96.46
84797;BME280;75028;51.374;21.078;2023-12-20T10:39:40;98488.41;;;5.23;97.02
84797;BME280;75028;51.374;21.078;2023-12-20T10:42:09;98494.63;;;5.22;96.19
84797;BME280;75028;51.374;21.078;2023-12-20T10:44:37;98497.25;;;5.22;96.71
84797;BME280;75028;51.374;21.078;2023-12-20T10:47:04;98474.44;;;5.13;96.46
84797;BME280;75028;51.374;21.078;2023-12-20T10:49:31;98486.38;;;5.27;96.68
84797;BME280;75028;51.374;21.078;2023-12-20T10:52:02;98483.75;;;5.27;96.41
84797;BME280;75028;51.374;21.078;2023-12-20T10:54:30;98473.34;;;5.16;96.33
84797;BME280;75028;51.374;21.078;2023-12-20T10:56:57;98485.41;;;5.28;96.95
84797;BME280;75028;51.374;21.078;2023-12-20T10:59:24;98481.00;;;5.28;96.09
84797;BME280;75028;51.374;21.078;2023-12-20T11:01:52;98484.81;;;5.24;96.35
84797;BME280;75028;51.374;21.078;2023-12-20T11:04:30;98485.53;;;5.26;96.50
84797;BME280;75028;51.374;21.078;2023-12-20T11:07:25;98476.28;;;5.22;97.00
84797;BME280;75028;51.374;21.078;2023-12-20T11:10:03;98480.88;;;5.30;96.51
84797;BME280;75028;51.374;21.078;2023-12-20T11:12:41;98473.00;;;5.30;96.55
84797;BME280;75028;51.374;21.078;2023-12-20T11:15:10;98467.34;;;5.34;96.59
84797;BME280;75028;51.374;21.078;2023-12-20T11:17:39;98454.09;;;5.26;96.34
84797;BME280;75028;51.374;21.078;2023-12-20T11:20:07;98465.69;;;5.33;95.86
84797;BME280;75028;51.374;21.078;2023-12-20T11:22:33;98459.31;;;5.26;95.99
84797;BME280;75028;51.374;21.078;2023-12-20T11:25:09;98459.97;;;5.19;96.45
84797;BME280;75028;51.374;21.078;2023-12-20T11:27:40;98464.66;;;5.15;96.12
84797;BME280;75028;51.374;21.078;2023-12-20T11:30:09;98458.47;;;5.16;95.96
84797;BME280;75028;51.374;21.078;2023-12-20T11:32:36;98461.72;;;5.09;96.12
84797;BME280;75028;51.374;21.078;2023-12-20T11:37:38;98448.75;;;5.07;96.23
84797;BME280;75028;51.374;21.078;2023-12-20T11:40:08;98434.41;;;5.02;96.05
84797;BME280;75028;51.374;21.078;2023-12-20T11:42:48;98444.88;;;5.02;96.38
84797;BME280;75028;51.374;21.078;2023-12-20T11:45:18;98449.88;;;5.05;96.73
84797;BME280;75028;51.374;21.078;2023-12-20T11:47:48;98443.00;;;5.13;96.10
84797;BME280;75028;51.374;21.078;2023-12-20T11:50:22;98433.47;;;5.03;96.29
84797;BME280;75028;51.374;21.078;2023-12-20T11:52:49;98438.84;;;5.01;96.29
84797;BME280;75028;51.374;21.078;2023-12-20T11:55:15;98430.84;;;5.03;96.59
84797;BME280;75028;51.374;21.078;2023-12-20T11:57:43;98434.41;;;5.02;96.65
84797;BME280;75028;51.374;21.078;2023-12-20T12:00:10;98423.06;;;4.92;96.30
84797;BME280;75028;51.374;21.078;2023-12-20T12:02:36;98421.63;;;5.08;96.57
84797;BME280;75028;51.374;21.078;2023-12-20T12:05:02;98422.28;;;5.01;96.56
84797;BME280;75028;51.374;21.078;2023-12-20T12:07:31;98422.81;;;5.04;96.43
84797;BME280;75028;51.374;21.078;2023-12-20T12:09:57;98427.63;;;4.99;96.57
84797;BME280;75028;51.374;21.078;2023-12-20T12:12:24;98423.25;;;5.00;96.62
84797;BME280;75028;51.374;21.078;2023-12-20T12:14:53;98424.59;;;4.94;96.39
84797;BME280;75028;51.374;21.078;2023-12-20T12:17:20;98429.84;;;4.94;96.40
84797;BME280;75028;51.374;21.078;2023-12-20T12:19:46;98419.19;;;4.96;97.19
84797;BME280;75028;51.374;21.078;2023-12-20T12:22:14;98426.00;;;4.98;96.54
84797;BME280;75028;51.374;21.078;2023-12-20T12:24:45;98418.81;;;5.00;96.85
84797;BME280;75028;51.374;21.078;2023-12-20T12:27:15;98427.78;;;4.98;96.38
84797;BME280;75028;51.374;21.078;2023-12-20T12:30:03;98413.56;;;5.00;97.17
84797;BME280;75028;51.374;21.078;2023-12-20T12:32:30;98409.31;;;4.99;96.68
84797;BME280;75028;51.374;21.078;2023-12-20T12:34:56;98413.56;;;5.00;96.88
84797;BME280;75028;51.374;21.078;2023-12-20T12:37:22;98408.19;;;5.02;96.23
84797;BME280;75028;51.374;21.078;2023-12-20T12:39:50;98403.22;;;4.99;96.70
84797;BME280;75028;51.374;21.078;2023-12-20T12:42:18;98402.97;;;5.02;96.70
84797;BME280;75028;51.374;21.078;2023-12-20T12:44:45;98402.28;;;5.00;96.57
84797;BME280;75028;51.374;21.078;2023-12-20T12:47:10;98398.25;;;4.96;96.83
84797;BME280;75028;51.374;21.078;2023-12-20T12:49:37;98414.31;;;5.12;96.91
84797;BME280;75028;51.374;21.078;2023-12-20T12:52:03;98397.31;;;5.06;96.78
84797;BME280;75028;51.374;21.078;2023-12-20T12:54:29;98396.50;;;5.06;96.81
84797;BME280;75028;51.374;21.078;2023-12-20T12:56:55;98406.28;;;5.04;96.54
84797;BME280;75028;51.374;21.078;2023-12-20T12:59:21;98405.19;;;5.06;96.54
84797;BME280;75028;51.374;21.078;2023-12-20T13:01:48;98404.91;;;5.00;97.07
84797;BME280;75028;51.374;21.078;2023-12-20T13:04:15;98414.03;;;5.05;96.89